createdAt,value
2023-04-03T00:08:15.859Z,54.77
2023-04-03T00:18:19.578Z,55.48
2023-04-03T00:28:24.143Z,55.95
2023-04-03T00:38:29.544Z,56.39
2023-04-03T00:48:41.924Z,56.88
2023-04-03T00:58:52.434Z,57.31
2023-04-03T01:08:57.604Z,58.02
2023-04-03T01:19:02.865Z,58.25
2023-04-03T01:29:08.615Z,58.51
2023-04-03T01:39:14.152Z,58.70
2023-04-03T01:49:19.394Z,58.99
2023-04-03T01:59:23.354Z,59.17
2023-04-03T02:09:31.186Z,59.65
2023-04-03T02:19:35.320Z,60.02
2023-04-03T02:29:39.645Z,60.03
2023-04-03T02:39:45.312Z,60.24
2023-04-03T02:49:49.337Z,60.51
2023-04-03T02:59:53.080Z,60.68
2023-04-03T03:10:00.182Z,60.67
2023-04-03T03:20:05.435Z,60.61
2023-04-03T03:30:12.436Z,60.82
2023-04-03T03:40:16.639Z,60.79
2023-04-03T03:50:26.125Z,60.90
2023-04-03T04:00:30.276Z,61.24
2023-04-03T04:10:39.890Z,61.33
2023-04-03T04:20:48.382Z,61.35
2023-04-03T04:30:53.798Z,61.33
2023-04-03T04:40:58.396Z,60.91
2023-04-03T04:51:02.794Z,60.40
2023-04-03T05:01:11.648Z,59.89
2023-04-03T05:11:34.218Z,58.90
2023-04-03T05:21:38.180Z,58.04
2023-04-03T05:31:52.085Z,57.31
2023-04-03T05:41:56.041Z,56.28
2023-04-03T05:51:59.892Z,55.37
2023-04-03T06:02:06.298Z,54.93
2023-04-03T06:12:10.941Z,54.12
2023-04-03T06:22:16.007Z,53.95
2023-04-03T06:32:19.746Z,53.34
2023-04-03T06:42:24.168Z,52.91
2023-04-03T06:52:37.133Z,52.80
2023-04-03T07:02:41.423Z,52.42
2023-04-03T07:12:45.318Z,52.47
2023-04-03T07:22:49.071Z,51.63
2023-04-03T07:32:52.816Z,51.02
2023-04-03T07:42:57.745Z,50.60
2023-04-03T07:53:02.050Z,49.58
2023-04-03T08:03:09.027Z,48.64
2023-04-03T08:13:14.091Z,47.71
2023-04-03T08:23:20.080Z,45.46
2023-04-03T08:33:25.074Z,44.02
2023-04-03T08:43:44.505Z,43.57
2023-04-03T08:53:58.370Z,43.48
2023-04-03T09:04:03.499Z,42.72
2023-04-03T09:14:27.238Z,41.64
2023-04-03T09:24:33.973Z,41.55
2023-04-03T09:34:38.020Z,41.00
2023-04-03T09:44:41.851Z,40.22
2023-04-03T09:54:45.973Z,39.84
2023-04-03T10:05:06.236Z,39.79
2023-04-03T10:15:21.394Z,40.34
2023-04-03T10:25:47.748Z,39.48
2023-04-03T10:36:13.163Z,38.98
2023-04-03T10:46:35.703Z,39.10
2023-04-03T10:57:04.621Z,38.83
2023-04-03T11:07:24.624Z,38.55
2023-04-03T11:17:39.631Z,39.42
2023-04-03T11:27:50.914Z,38.89
2023-04-03T11:37:56.022Z,38.41
2023-04-03T11:48:24.521Z,38.99
2023-04-03T11:58:34.207Z,38.97
2023-04-03T12:08:42.442Z,38.96
2023-04-03T12:18:59.692Z,38.78
2023-04-03T12:29:14.188Z,39.46
2023-04-03T12:40:22.345Z,39.46
2023-04-03T12:50:31.601Z,39.81
2023-04-03T13:00:40.089Z,39.28
2023-04-03T13:11:02.179Z,40.28
2023-04-03T13:21:09.936Z,39.29
2023-04-03T13:31:15.321Z,38.68
2023-04-03T13:41:25.093Z,39.22
